Wayana — PE5639 — position and weather

sailwx.info

Track history (hours):
 
Tides and Currents Weather Stations Pressure Air Temp Water Temp Dewpoint Dewpoint Depression Visibility Wind Speed Wind Dir Waves Ship Positions

Wayana

Last reported at 2014-Dec-21 17:32 UTC. Time now 2014-Dec-22 06:21 UTC.
Position N 53°22' E 005°13'.

Length 14 m.

Type: Sailing vessel. MMSI: 244020670.

Date/timePositionNaut miles runAvg speedWind from/ knotsBaromVisibWave heightAir tempDewpointWater temp
2014-Dec-21 17:32N 53°22' E 005°13'0 0.0
2014-Dec-21 16:32N 53°22' E 005°13'0 0.0
2014-Dec-21 15:32N 53°22' E 005°13'0 0.0
2014-Dec-21 14:32N 53°22' E 005°13'0 0.0
2014-Dec-21 13:32N 53°22' E 005°13'1 1.0
2014-Dec-21 12:33N 53°21' E 005°13'4 3.6
2014-Dec-21 11:33N 53°17' E 005°12'6 5.8
2014-Dec-21 10:33N 53°13' E 005°18'6 5.7
2014-Dec-21 09:33N 53°08' E 005°23'4 4.1
2014-Dec-21 08:33N 53°04' E 005°20'6 6.3
2014-Dec-21 07:33N 52°60' E 005°12'7 7.0
2014-Dec-21 06:33N 52°55' E 005°05'1 1.3
2014-Dec-21 05:33N 52°55' E 005°03'  
2014-Dec-15 13:31N 52°55' E 005°03'0 0.0
2014-Dec-15 12:30N 52°55' E 005°03'0 0.0
2014-Dec-15 11:30N 52°55' E 005°03'0 0.0
2014-Dec-15 10:34N 52°55' E 005°03'0 0.0
2014-Dec-15 09:33N 52°55' E 005°03'0 0.0
2014-Dec-15 08:33N 52°55' E 005°03'0 0.0
2014-Dec-15 07:33N 52°55' E 005°03'0 0.0
2014-Dec-15 06:33N 52°55' E 005°03'0 0.0
2014-Dec-15 05:33N 52°55' E 005°03'0 0.0
2014-Dec-15 04:33N 52°55' E 005°03'0 0.0
2014-Dec-15 03:33N 52°55' E 005°03'0 0.0
2014-Dec-15 02:33N 52°55' E 005°03'0 0.0
2014-Dec-15 01:33N 52°55' E 005°03'0 0.0
2014-Dec-15 00:33N 52°55' E 005°03'0 0.0
2014-Dec-14 23:33N 52°55' E 005°03'0 0.0
2014-Dec-14 22:33N 52°55' E 005°03'0 0.0
2014-Dec-14 21:33N 52°55' E 005°03'0 0.0
2014-Dec-14 20:33N 52°55' E 005°03'0 0.0
2014-Dec-14 19:33N 52°55' E 005°03'0 0.0
2014-Dec-14 18:33N 52°55' E 005°03'0 0.0
2014-Dec-14 17:33N 52°55' E 005°03'0 0.0
2014-Dec-14 16:33N 52°55' E 005°03'0 0.0
2014-Dec-14 15:30N 52°55' E 005°03'0 0.0
2014-Dec-14 14:33N 52°55' E 005°03'  
Track history (hours):
 
Tides and Currents Weather Stations Pressure Air Temp Water Temp Dewpoint Dewpoint Depression Visibility Wind Speed Wind Dir Waves Ship Positions

Wayana

Last reported at 2014-Dec-21 17:32 UTC. Time now 2014-Dec-22 06:21 UTC.
Position N 53°22' E 005°13'.

Length 14 m.

Type: Sailing vessel. MMSI: 244020670.

Date/timePositionNaut miles runAvg speedWind from/ knotsBaromVisibWave heightAir tempDewpointWater temp
2014-Dec-21 17:32N 53°22' E 005°13'0 0.0
2014-Dec-21 16:32N 53°22' E 005°13'0 0.0
2014-Dec-21 15:32N 53°22' E 005°13'0 0.0
2014-Dec-21 14:32N 53°22' E 005°13'0 0.0
2014-Dec-21 13:32N 53°22' E 005°13'1 1.0
2014-Dec-21 12:33N 53°21' E 005°13'4 3.6
2014-Dec-21 11:33N 53°17' E 005°12'6 5.8
2014-Dec-21 10:33N 53°13' E 005°18'6 5.7
2014-Dec-21 09:33N 53°08' E 005°23'4 4.1
2014-Dec-21 08:33N 53°04' E 005°20'6 6.3
2014-Dec-21 07:33N 52°60' E 005°12'7 7.0
2014-Dec-21 06:33N 52°55' E 005°05'1 1.3
2014-Dec-21 05:33N 52°55' E 005°03'  
2014-Dec-15 13:31N 52°55' E 005°03'0 0.0
2014-Dec-15 12:30N 52°55' E 005°03'0 0.0
2014-Dec-15 11:30N 52°55' E 005°03'0 0.0
2014-Dec-15 10:34N 52°55' E 005°03'0 0.0
2014-Dec-15 09:33N 52°55' E 005°03'0 0.0
2014-Dec-15 08:33N 52°55' E 005°03'0 0.0
2014-Dec-15 07:33N 52°55' E 005°03'0 0.0
2014-Dec-15 06:33N 52°55' E 005°03'0 0.0
2014-Dec-15 05:33N 52°55' E 005°03'0 0.0
2014-Dec-15 04:33N 52°55' E 005°03'0 0.0
2014-Dec-15 03:33N 52°55' E 005°03'0 0.0
2014-Dec-15 02:33N 52°55' E 005°03'0 0.0
2014-Dec-15 01:33N 52°55' E 005°03'0 0.0
2014-Dec-15 00:33N 52°55' E 005°03'0 0.0
2014-Dec-14 23:33N 52°55' E 005°03'0 0.0
2014-Dec-14 22:33N 52°55' E 005°03'0 0.0
2014-Dec-14 21:33N 52°55' E 005°03'0 0.0
2014-Dec-14 20:33N 52°55' E 005°03'0 0.0
2014-Dec-14 19:33N 52°55' E 005°03'0 0.0
2014-Dec-14 18:33N 52°55' E 005°03'0 0.0
2014-Dec-14 17:33N 52°55' E 005°03'0 0.0
2014-Dec-14 16:33N 52°55' E 005°03'0 0.0
2014-Dec-14 15:30N 52°55' E 005°03'0 0.0
2014-Dec-14 14:33N 52°55' E 005°03'  

Dump ship's entire track history